Time;durP1;ratioP1;P1;durP2;ratioP2;P2;SDS_P1;SDS_P2;PMS_P1;PMS_P2;Temp;Humidity;BMP_temperature;BMP_pressure;BME280_temperature;BME280_humidity;BME280_pressure;Samples;Min_cycle;Max_cycle;Signal;HPM_P1;HPM_P2
2022/05/27 00:02:10;;;;;;;22.80;4.57;;;13.40;93.70;;;;;;6160350;23;20016;-80
2022/05/27 00:04:49;;;;;;;23.25;4.53;;;13.30;93.60;;;;;;6159862;23;20084;-81
2022/05/27 00:07:39;;;;;;;24.35;4.00;;;13.30;93.60;;;;;;6184273;23;20013;-79
2022/05/27 00:10:25;;;;;;;21.70;4.15;;;13.20;93.60;;;;;;6161443;23;20009;-80
2022/05/27 00:13:14;;;;;;;26.80;4.30;;;13.20;93.70;;;;;;6159715;23;20331;-80
2022/05/27 00:16:20;;;;;;;21.25;4.10;;;13.20;93.80;;;;;;6161112;23;20020;-80
2022/05/27 00:19:07;;;;;;;25.52;5.22;;;13.10;93.80;;;;;;6160554;23;20056;-81
2022/05/27 00:21:51;;;;;;;23.55;4.82;;;13.20;93.80;;;;;;6159219;23;20009;-79
2022/05/27 00:24:32;;;;;;;30.80;4.70;;;13.20;93.80;;;;;;6185995;23;20043;-79
2022/05/27 00:27:08;;;;;;;26.55;4.95;;;13.10;93.90;;;;;;6172393;23;20347;-79
2022/05/27 00:29:42;;;;;;;18.10;4.20;;;13.00;93.80;;;;;;6159490;23;20095;-81
2022/05/27 00:32:16;;;;;;;20.30;4.50;;;12.90;93.90;;;;;;6160262;23;20423;-80
2022/05/27 00:34:52;;;;;;;19.88;3.67;;;13.00;93.70;;;;;;6159946;23;20095;-79
2022/05/27 00:37:29;;;;;;;21.33;3.30;;;12.90;93.60;;;;;;6161265;23;20031;-79
2022/05/27 00:40:21;;;;;;;23.30;3.80;;;12.80;93.10;;;;;;6159510;23;20071;-79
2022/05/27 00:42:50;;;;;;;20.88;4.75;;;12.80;92.90;;;;;;6184823;23;20097;-79
2022/05/27 00:45:41;;;;;;;21.23;4.05;;;12.80;92.80;;;;;;6159236;23;20041;-79
2022/05/27 00:48:13;;;;;;;17.52;3.90;;;12.70;92.90;;;;;;6185000;23;20013;-79
2022/05/27 00:50:47;;;;;;;18.98;3.33;;;12.70;92.80;;;;;;6158877;23;20009;-80
2022/05/27 00:53:34;;;;;;;15.77;3.35;;;12.60;92.80;;;;;;6160728;23;20092;-79
2022/05/27 00:56:16;;;;;;;13.88;2.85;;;12.60;92.70;;;;;;6159464;23;20016;-79
2022/05/27 00:59:04;;;;;;;15.65;2.92;;;12.60;92.70;;;;;;6160416;23;20016;-79
2022/05/27 01:01:38;;;;;;;20.40;3.42;;;12.60;92.60;;;;;;6157766;23;20423;-80
2022/05/27 01:04:10;;;;;;;24.30;5.55;;;12.60;92.30;;;;;;6160092;23;20016;-78
2022/05/27 01:06:36;;;;;;;19.48;4.05;;;12.60;92.40;;;;;;6157753;23;20027;-80
2022/05/27 01:09:13;;;;;;;22.90;3.80;;;12.60;92.40;;;;;;6160592;23;20009;-81
2022/05/27 01:12:17;;;;;;;20.23;3.50;;;12.50;92.40;;;;;;6158792;23;20458;-80
2022/05/27 01:15:29;;;;;;;20.08;3.90;;;12.50;92.00;;;;;;6182768;23;20043;-80
2022/05/27 01:21:42;;;;;;;18.00;3.22;;;12.50;92.20;;;;;;6066187;23;20019;-79
2022/05/27 01:24:37;;;;;;;25.45;4.05;;;12.40;92.20;;;;;;6176405;23;20016;-81
2022/05/27 01:27:45;;;;;;;15.15;3.38;;;12.30;92.20;;;;;;6208021;23;20008;-79
2022/05/27 01:30:49;;;;;;;17.88;3.40;;;12.20;92.00;;;;;;6135513;23;20032;-79
2022/05/27 01:33:46;;;;;;;24.25;3.58;;;12.20;91.90;;;;;;6157493;23;20013;-80
2022/05/27 01:36:34;;;;;;;22.70;3.35;;;12.10;92.00;;;;;;6182769;23;20009;-80
2022/05/27 01:39:41;;;;;;;17.48;3.13;;;12.00;92.10;;;;;;6161687;23;20005;-80
2022/05/27 01:42:45;;;;;;;23.13;4.00;;;12.00;92.10;;;;;;6160194;23;20048;-80
2022/05/27 01:46:03;;;;;;;20.10;3.67;;;12.00;92.00;;;;;;6185493;23;20067;-80
2022/05/27 01:49:08;;;;;;;14.82;3.40;;;12.00;92.20;;;;;;6113553;23;20104;-80
2022/05/27 01:52:03;;;;;;;13.77;3.55;;;12.00;92.10;;;;;;6184819;23;20040;-80
2022/05/27 01:55:34;;;;;;;;;;;;;;;;;;;;;
2022/05/27 01:58:21;;;;;;;17.38;3.33;;;12.00;92.00;;;;;;6183272;23;20360;-81
2022/05/27 02:04:19;;;;;;;18.13;3.38;;;12.00;91.50;;;;;;6176568;23;20107;-79
2022/05/27 02:07:20;;;;;;;23.75;3.90;;;11.80;91.40;;;;;;6161701;23;20015;-80
2022/05/27 02:10:39;;;;;;;21.55;3.40;;;11.70;91.50;;;;;;6161701;23;20096;-80
2022/05/27 02:13:38;;;;;;;22.20;3.55;;;11.70;92.30;;;;;;6158742;23;20371;-80
2022/05/27 02:16:18;;;;;;;23.55;3.85;;;11.60;92.20;;;;;;6160101;23;20005;-81
2022/05/27 02:19:06;;;;;;;22.40;3.65;;;11.60;92.00;;;;;;6161873;23;20051;-81
2022/05/27 02:21:59;;;;;;;16.92;3.10;;;11.50;92.00;;;;;;6164650;23;20095;-80
2022/05/27 02:24:58;;;;;;;19.15;4.03;;;11.50;92.10;;;;;;6165795;23;20048;-80
2022/05/27 02:27:44;;;;;;;20.67;3.15;;;11.40;92.20;;;;;;6166380;23;20441;-80
2022/05/27 02:30:34;;;;;;;23.60;3.67;;;11.40;92.60;;;;;;6165519;23;20009;-79
2022/05/27 02:36:29;;;;;;;20.45;3.53;;;11.30;92.60;;;;;;6190374;23;20079;-80
2022/05/27 02:38:57;;;;;;;23.77;4.50;;;11.20;92.60;;;;;;6190354;23;20016;-80
2022/05/27 02:42:12;;;;;;;26.58;5.32;;;11.20;92.80;;;;;;6165308;23;20015;-80
2022/05/27 02:45:21;;;;;;;21.90;3.97;;;11.20;93.20;;;;;;6164938;23;20013;-80
2022/05/27 02:51:35;;;;;;;20.95;4.07;;;11.20;93.50;;;;;;6184580;23;20009;-80
2022/05/27 02:55:16;;;;;;;19.92;4.65;;;11.20;93.30;;;;;;6216936;23;20013;-81
2022/05/27 02:58:08;;;;;;;20.08;3.90;;;11.20;93.40;;;;;;6216161;23;20012;-81
2022/05/27 03:01:16;;;;;;;;;;;;;;;;;;;;;
2022/05/27 03:04:44;;;;;;;25.73;4.40;;;11.20;93.20;;;;;;6178782;23;20159;-80
2022/05/27 03:07:52;;;;;;;21.38;4.47;;;11.20;93.20;;;;;;6135541;23;20381;-80
2022/05/27 03:11:25;;;;;;;;;;;;;;;;;;;;;
2022/05/27 03:14:50;;;;;;;19.95;3.08;;;11.20;92.90;;;;;;6191215;23;20047;-79
2022/05/27 03:18:01;;;;;;;20.95;3.25;;;11.10;92.50;;;;;;6180967;23;20013;-79
2022/05/27 03:24:38;;;;;;;19.65;3.28;;;11.00;91.70;;;;;;6182668;23;20017;-80
2022/05/27 03:27:43;;;;;;;23.85;4.18;;;11.00;91.10;;;;;;6069533;23;20009;-79
2022/05/27 03:30:37;;;;;;;13.27;3.10;;;10.90;90.30;;;;;;6135942;23;20015;-79
2022/05/27 03:33:37;;;;;;;13.68;2.80;;;10.90;90.80;;;;;;6135121;23;20012;-80
2022/05/27 03:36:34;;;;;;;21.42;3.45;;;10.80;90.80;;;;;;6133692;23;20009;-80
2022/05/27 03:39:36;;;;;;;14.90;3.00;;;10.90;90.90;;;;;;6133467;23;20005;-79
2022/05/27 03:42:32;;;;;;;17.80;2.83;;;10.90;90.60;;;;;;6160223;23;20009;-79
2022/05/27 03:45:46;;;;;;;17.35;3.08;;;10.90;91.10;;;;;;6131722;23;20020;-80
2022/05/27 03:48:41;;;;;;;17.17;3.13;;;10.90;90.40;;;;;;6141812;23;20044;-80
2022/05/27 03:51:54;;;;;;;17.48;3.00;;;10.90;90.50;;;;;;6159348;23;20009;-80
2022/05/27 03:55:12;;;;;;;16.38;3.05;;;11.00;89.80;;;;;;6100370;23;20009;-80
2022/05/27 03:58:04;;;;;;;22.10;3.60;;;10.90;89.60;;;;;;6086175;23;20504;-80
2022/05/27 04:00:33;;;;;;;21.40;2.95;;;11.00;90.10;;;;;;6095701;23;20064;-80
2022/05/27 04:03:13;;;;;;;21.55;3.65;;;11.00;90.10;;;;;;6098783;23;20006;-80
2022/05/27 04:06:04;;;;;;;18.83;3.80;;;11.10;89.90;;;;;;6076496;23;20024;-79
2022/05/27 04:09:05;;;;;;;20.10;3.63;;;11.00;89.60;;;;;;6078029;23;20010;-81
2022/05/27 04:12:19;;;;;;;17.77;3.15;;;11.20;89.70;;;;;;6099018;23;20007;-79
2022/05/27 04:14:53;;;;;;;15.10;2.85;;;11.20;89.80;;;;;;6096595;23;20052;-79
2022/05/27 04:21:08;;;;;;;17.60;3.53;;;11.20;87.90;;;;;;6089490;23;20018;-79
2022/05/27 04:23:52;;;;;;;19.88;4.82;;;11.40;89.00;;;;;;6096508;23;20038;-79
2022/05/27 04:26:38;;;;;;;17.58;4.10;;;11.40;88.00;;;;;;6132265;23;20014;-80
2022/05/27 04:29:09;;;;;;;18.30;3.28;;;11.50;88.20;;;;;;6126185;23;20020;-79
2022/05/27 04:31:38;;;;;;;19.92;4.28;;;11.50;87.90;;;;;;6129099;23;20014;-76
2022/05/27 04:34:08;;;;;;;15.48;3.00;;;11.60;87.50;;;;;;6153829;23;20010;-77
2022/05/27 04:36:51;;;;;;;;;;;11.60;88.00;;;;;;6006120;23;20111;-76
2022/05/27 04:39:19;;;;;;;17.42;3.58;;;11.60;87.40;;;;;;6109927;23;19940;-77
2022/05/27 04:41:46;;;;;;;14.52;3.30;;;11.70;87.70;;;;;;6104702;23;20072;-77
2022/05/27 04:44:12;;;;;;;20.13;3.80;;;11.70;86.30;;;;;;6104350;23;20010;-78
2022/05/27 04:46:43;;;;;;;25.10;3.35;;;11.80;86.40;;;;;;6130056;23;20092;-78
2022/05/27 04:49:09;;;;;;;18.85;2.85;;;11.70;85.30;;;;;;6135133;23;20016;-77
2022/05/27 04:51:37;;;;;;;17.73;3.78;;;11.80;85.80;;;;;;6135108;23;20009;-77
2022/05/27 04:54:05;;;;;;;17.45;3.30;;;11.80;85.10;;;;;;6110517;23;20005;-78
2022/05/27 04:56:36;;;;;;;17.83;3.58;;;11.80;84.40;;;;;;6134882;23;20016;-78
2022/05/27 04:59:05;;;;;;;22.67;3.60;;;11.80;84.00;;;;;;6159241;23;20016;-78
2022/05/27 05:01:35;;;;;;;17.70;3.13;;;11.80;84.80;;;;;;6136419;23;20005;-78
2022/05/27 05:04:04;;;;;;;19.17;3.50;;;11.80;84.50;;;;;;6135985;23;20005;-77
2022/05/27 05:06:36;;;;;;;19.38;3.78;;;11.90;83.50;;;;;;6136539;23;20012;-77
2022/05/27 05:09:07;;;;;;;19.67;3.42;;;12.00;82.60;;;;;;6112480;23;20016;-77
2022/05/27 05:11:34;;;;;;;24.00;3.72;;;12.00;83.40;;;;;;6136173;23;20316;-77
2022/05/27 05:14:00;;;;;;;;;;;12.10;82.30;;;;;;6136972;23;20543;-77
2022/05/27 05:16:34;;;;;;;19.67;3.40;;;12.10;82.40;;;;;;6161363;23;19962;-77
2022/05/27 05:19:05;;;;;;;23.88;3.60;;;12.00;82.40;;;;;;6136386;23;20009;-78
2022/05/27 05:21:39;;;;;;;21.10;3.65;;;12.10;82.90;;;;;;6111808;23;20009;-77
2022/05/27 05:24:08;;;;;;;19.33;3.40;;;12.20;82.50;;;;;;6136366;23;20024;-78
2022/05/27 05:26:40;;;;;;;18.67;3.03;;;12.20;83.20;;;;;;6161203;23;20066;-77
2022/05/27 05:29:11;;;;;;;22.15;4.32;;;12.30;81.50;;;;;;6137130;23;20438;-78
2022/05/27 05:31:51;;;;;;;18.88;3.17;;;12.30;81.10;;;;;;6137106;23;20028;-77
2022/05/27 05:34:33;;;;;;;22.00;3.22;;;12.40;78.90;;;;;;6138113;23;20009;-77
2022/05/27 05:41:20;;;;;;;25.27;3.13;;;12.80;76.60;;;;;;6138370;23;20064;-78
2022/05/27 05:44:42;;;;;;;24.10;3.77;;;12.80;77.10;;;;;;6138303;23;20028;-78
2022/05/27 05:48:19;;;;;;;16.55;2.97;;;12.90;71.80;;;;;;6095767;23;20222;-77
2022/05/27 05:55:00;;;;;;;14.48;2.80;;;13.20;74.10;;;;;;6129508;23;20329;-78
2022/05/27 05:58:10;;;;;;;13.43;3.35;;;13.20;71.20;;;;;;6092878;23;20014;-79
2022/05/27 06:01:25;;;;;;;26.73;3.70;;;13.40;72.50;;;;;;6093149;23;20018;-78
2022/05/27 06:08:00;;;;;;;19.00;3.88;;;13.80;70.20;;;;;;6086428;23;20015;-78
2022/05/27 06:10:51;;;;;;;;;;;;;;;;;;;;;
2022/05/27 06:14:18;;;;;;;18.33;3.97;;;14.10;70.10;;;;;;6095422;23;20378;-77
2022/05/27 06:17:17;;;;;;;;;;;14.30;69.90;;;;;;6038796;23;20131;-78
2022/05/27 06:20:27;;;;;;;14.63;3.33;;;14.50;69.70;;;;;;6068640;23;20235;-77
2022/05/27 06:27:43;;;;;;;14.85;3.65;;;15.00;66.40;;;;;;5853438;24;20375;-77
2022/05/27 07:56:11;;;;;;;17.13;3.63;;;15.90;64.10;;;;;;6159883;23;20272;-76
2022/05/27 07:58:43;;;;;;;;;;;15.70;63.30;;;;;;6184449;23;20372;-74
2022/05/27 08:01:11;;;;;;;20.33;3.58;;;15.40;65.00;;;;;;6134130;23;19912;-76
2022/05/27 08:04:04;;;;;;;18.02;3.55;;;15.40;63.10;;;;;;6156430;23;20432;-77
2022/05/27 08:06:29;;;;;;;22.40;4.53;;;15.70;63.80;;;;;;6158418;23;20067;-77
2022/05/27 08:08:58;;;;;;;17.85;3.88;;;16.00;65.00;;;;;;6158090;23;20015;-80
2022/05/27 08:48:55;;;;;;;23.00;4.00;;;16.50;61.70;;;;;;6206172;23;20061;-76
2022/05/27 08:51:49;;;;;;;19.15;3.55;;;16.30;61.50;;;;;;6169598;23;20017;-80
2022/05/27 08:54:32;;;;;;;23.50;4.32;;;16.30;63.00;;;;;;6169402;23;20015;-76
2022/05/27 09:00:03;;;;;;;18.05;3.58;;;16.80;62.10;;;;;;6157852;23;20017;-80
2022/05/27 09:06:57;;;;;;;19.90;2.88;;;17.20;60.50;;;;;;6184070;23;20055;-76
2022/05/27 09:10:20;;;;;;;19.30;3.78;;;17.40;60.30;;;;;;6157935;23;20022;-79
2022/05/27 09:13:19;;;;;;;23.77;3.90;;;17.10;59.80;;;;;;6095804;23;20091;-74
2022/05/27 09:19:23;;;;;;;15.43;3.25;;;17.10;60.40;;;;;;6157804;23;20352;-79
2022/05/27 09:22:23;;;;;;;19.90;3.85;;;17.00;59.30;;;;;;6157336;23;20342;-70
2022/05/27 09:25:17;;;;;;;16.35;3.30;;;17.10;61.50;;;;;;6158098;23;20020;-79
2022/05/27 09:31:21;;;;;;;15.90;3.15;;;16.70;59.80;;;;;;6157399;23;20048;-76
2022/05/27 09:41:45;;;;;;;22.13;3.85;;;16.50;60.10;;;;;;6183959;23;20312;-74
2022/05/27 09:48:06;;;;;;;20.88;4.00;;;17.00;61.90;;;;;;6155980;23;20478;-76
2022/05/27 09:50:41;;;;;;;13.98;3.22;;;16.80;60.50;;;;;;6129966;23;20005;-76
2022/05/27 09:53:11;;;;;;;13.50;3.08;;;16.50;60.50;;;;;;6154349;23;20017;-76
2022/05/27 09:55:50;;;;;;;16.23;3.53;;;16.50;61.10;;;;;;6129913;23;20045;-70
2022/05/27 09:58:29;;;;;;;14.73;3.20;;;16.40;63.30;;;;;;6146035;23;20018;-78
2022/05/27 10:08:58;;;;;;;19.05;4.10;;;16.40;61.40;;;;;;6030540;23;20102;-77
2022/05/27 10:30:01;;;;;;;15.20;3.70;;;16.90;59.90;;;;;;6158379;23;20098;-73
2022/05/27 10:32:49;;;;;;;20.23;3.80;;;16.70;61.70;;;;;;6164058;23;20016;-77
2022/05/27 10:36:03;;;;;;;15.18;3.00;;;16.60;61.60;;;;;;6216483;23;20058;-77
2022/05/27 10:39:06;;;;;;;22.58;3.85;;;16.50;61.50;;;;;;6158192;23;20009;-78
2022/05/27 10:42:05;;;;;;;18.40;3.75;;;16.30;61.30;;;;;;6158919;23;20005;-80
2022/05/27 10:45:26;;;;;;;18.40;3.75;;;16.40;63.80;;;;;;6158247;23;20013;-79
2022/05/27 10:47:51;;;;;;;18.55;3.33;;;16.20;61.90;;;;;;6159158;23;20091;-75
2022/05/27 11:02:33;;;;;;;19.27;3.67;;;16.80;62.20;;;;;;6214838;23;20042;-77
2022/05/27 11:05:20;;;;;;;21.50;4.78;;;16.70;62.40;;;;;;6189071;23;20423;-76
2022/05/27 11:08:12;;;;;;;19.20;4.10;;;16.80;62.80;;;;;;6190621;23;20097;-78
2022/05/27 11:10:50;;;;;;;16.65;3.88;;;16.90;63.40;;;;;;6163829;23;20008;-76
2022/05/27 11:16:49;;;;;;;23.42;4.15;;;17.10;62.50;;;;;;6188531;23;20024;-77
2022/05/27 11:19:18;;;;;;;16.15;3.85;;;16.80;62.70;;;;;;6164399;23;20067;-78
2022/05/27 11:21:56;;;;;;;20.45;3.95;;;16.90;63.10;;;;;;6189224;23;20327;-77
2022/05/27 11:45:15;;;;;;;20.13;3.40;;;16.70;61.90;;;;;;6209320;23;20375;-73
2022/05/27 11:48:02;;;;;;;21.25;4.05;;;16.60;61.70;;;;;;6188732;23;20100;-75
2022/05/27 11:50:35;;;;;;;18.42;3.50;;;16.80;63.40;;;;;;6188219;23;20439;-76
2022/05/27 11:53:34;;;;;;;24.80;4.45;;;16.70;62.40;;;;;;6162559;23;20015;-83
2022/05/27 11:56:27;;;;;;;18.65;3.80;;;16.60;61.50;;;;;;6183933;23;20009;-79
2022/05/27 12:06:50;;;;;;;22.13;4.30;;;16.80;62.40;;;;;;6065476;23;20010;-74
2022/05/27 12:09:34;;;;;;;18.35;4.20;;;16.60;62.80;;;;;;6063888;23;20023;-74
2022/05/27 12:12:18;;;;;;;20.40;3.47;;;16.70;63.00;;;;;;6050993;23;20010;-76
2022/05/27 12:19:20;;;;;;;19.10;3.20;;;17.10;61.80;;;;;;6214706;23;20049;-75
2022/05/27 12:22:04;;;;;;;16.95;3.70;;;17.40;61.30;;;;;;6163624;23;20083;-76
2022/05/27 12:31:43;;;;;;;22.00;3.78;;;16.80;60.40;;;;;;6188466;23;19908;-81
2022/05/27 12:34:30;;;;;;;13.30;3.45;;;17.10;61.80;;;;;;6187904;23;20557;-82
2022/05/27 12:37:36;;;;;;;31.92;4.47;;;16.80;61.30;;;;;;6163207;23;20013;-79
2022/05/27 12:40:36;;;;;;;19.30;3.58;;;16.50;62.70;;;;;;6187652;23;20084;-76
2022/05/27 12:43:58;;;;;;;19.80;3.67;;;16.50;64.00;;;;;;6213467;23;20015;-74
2022/05/27 12:55:04;;;;;;;18.17;3.50;;;16.80;63.10;;;;;;6183472;23;20001;-76
2022/05/27 14:46:57;;;;;;;18.65;3.30;;;17.10;60.90;;;;;;6196421;23;20107;-75
2022/05/27 18:29:38;;;;;;;18.20;2.33;;;13.70;72.00;;;;;;6186760;23;20032;-73
2022/05/27 18:32:07;;;;;;;22.02;3.83;;;13.70;71.70;;;;;;6136740;23;20098;-75
2022/05/27 18:34:34;;;;;;;13.27;2.33;;;13.60;71.70;;;;;;6160479;23;20005;-74
2022/05/27 18:36:59;;;;;;;12.85;2.72;;;13.60;71.70;;;;;;6160663;23;20005;-77
2022/05/27 18:39:26;;;;;;;17.58;3.03;;;13.60;72.90;;;;;;6136714;23;20499;-72
2022/05/27 18:41:51;;;;;;;14.23;2.22;;;13.50;72.90;;;;;;6160090;23;20009;-73
2022/05/27 18:44:23;;;;;;;15.20;2.72;;;13.40;73.40;;;;;;6159641;23;20137;-81
2022/05/27 18:47:24;;;;;;;12.70;2.40;;;13.40;74.00;;;;;;6135531;23;20009;-81
2022/05/27 18:50:00;;;;;;;14.68;2.47;;;13.30;74.70;;;;;;6007802;23;20012;-81
2022/05/27 18:53:13;;;;;;;12.38;2.47;;;13.30;74.40;;;;;;5985785;23;20031;-78
2022/05/27 18:55:54;;;;;;;16.48;2.38;;;13.20;75.10;;;;;;6008764;23;20038;-78
2022/05/27 18:59:20;;;;;;;13.68;2.50;;;13.20;73.60;;;;;;5985517;23;20399;-76
2022/05/27 19:01:50;;;;;;;11.68;2.75;;;13.10;73.30;;;;;;5987324;23;20019;-80
2022/05/27 19:04:20;;;;;;;13.85;2.30;;;13.10;74.70;;;;;;5970805;23;20012;-79
2022/05/27 19:49:20;;;;;;;16.85;3.10;;;12.20;78.40;;;;;;6185289;23;20016;-74
2022/05/27 19:51:46;;;;;;;16.40;2.65;;;12.10;78.10;;;;;;6135205;23;20021;-74
2022/05/27 19:54:13;;;;;;;18.42;2.58;;;12.10;78.60;;;;;;6111532;23;20100;-74
2022/05/27 19:56:50;;;;;;;16.75;2.47;;;12.10;78.30;;;;;;6135323;23;20098;-74
2022/05/27 19:59:42;;;;;;;11.90;2.10;;;12.00;78.70;;;;;;6112473;23;20020;-76
2022/05/27 20:06:25;;;;;;;27.38;3.13;;;12.00;78.80;;;;;;6159745;23;20075;-75
2022/05/27 20:08:50;;;;;;;12.95;2.05;;;12.10;78.30;;;;;;6160064;23;20080;-72
2022/05/27 20:11:19;;;;;;;16.42;2.33;;;12.00;78.90;;;;;;6160554;23;20040;-80
2022/05/27 20:14:09;;;;;;;19.27;3.03;;;12.00;78.80;;;;;;6136212;23;20112;-78
2022/05/27 20:16:46;;;;;;;20.55;3.47;;;12.20;78.90;;;;;;6125513;23;20029;-79
2022/05/27 20:19:30;;;;;;;13.15;2.25;;;12.00;79.60;;;;;;6055739;23;20018;-78
2022/05/27 20:21:56;;;;;;;11.32;2.10;;;12.00;79.20;;;;;;6077618;23;20014;-79
2022/05/27 20:24:31;;;;;;;15.45;2.25;;;11.90;80.00;;;;;;6077814;23;20152;-79
2022/05/27 20:27:08;;;;;;;18.55;2.58;;;11.90;80.20;;;;;;6075895;23;20377;-81
2022/05/27 20:30:08;;;;;;;15.52;2.05;;;11.90;79.60;;;;;;6051709;23;20029;-77
2022/05/27 20:32:46;;;;;;;14.50;2.35;;;11.80;79.90;;;;;;6097521;23;20041;-78
2022/05/27 20:35:22;;;;;;;14.85;2.33;;;11.80;80.10;;;;;;6074942;23;20010;-79
2022/05/27 20:38:06;;;;;;;18.38;2.47;;;11.80;80.10;;;;;;6079760;23;20021;-80
2022/05/27 20:40:35;;;;;;;15.30;3.63;;;11.80;80.40;;;;;;6109782;23;20061;-79
2022/05/27 20:43:02;;;;;;;14.40;2.80;;;11.70;80.50;;;;;;6086974;23;20447;-79
2022/05/27 20:45:40;;;;;;;21.17;2.72;;;11.70;81.10;;;;;;6083294;23;20306;-77
2022/05/27 20:48:19;;;;;;;18.33;2.72;;;11.70;81.00;;;;;;6118134;23;20016;-77
2022/05/27 20:51:21;;;;;;;;;;;;;;;;;;;;;
2022/05/27 20:54:06;;;;;;;21.92;4.18;;;11.70;81.10;;;;;;6185924;23;20013;-77
2022/05/27 20:56:40;;;;;;;17.80;2.83;;;11.70;81.30;;;;;;6135661;23;20016;-78
2022/05/27 20:59:09;;;;;;;16.05;2.60;;;11.70;81.50;;;;;;6136067;23;20009;-76
2022/05/27 21:01:38;;;;;;;12.30;2.35;;;11.80;81.00;;;;;;6135850;23;20020;-76
2022/05/27 21:04:05;;;;;;;11.23;3.13;;;11.80;81.60;;;;;;6135867;23;20009;-78
2022/05/27 21:10:08;;;;;;;15.65;2.60;;;11.70;82.30;;;;;;6185402;23;20431;-75
2022/05/27 21:12:52;;;;;;;;;;;;;;;;;;;;;
2022/05/27 21:15:28;;;;;;;13.68;3.03;;;11.60;81.60;;;;;;6159950;23;20009;-72
2022/05/27 21:26:31;;;;;;;12.05;2.20;;;11.70;82.30;;;;;;6037757;23;20477;-79
2022/05/27 21:29:52;;;;;;;16.38;2.75;;;11.80;81.80;;;;;;5956679;24;20069;-80
2022/05/27 21:32:38;;;;;;;13.93;2.72;;;11.80;81.60;;;;;;6078191;23;20471;-79
2022/05/27 21:35:06;;;;;;;16.00;2.00;;;11.80;81.60;;;;;;6131323;23;20016;-80
